Central Virginia Flyers


Central Virginia Flyers is a 10 member flying club based in Richmond, VA at Hanover County Airport (KOFP). We own N787AT, a 1977 Cessna 172 with 180hp conversion. If you are interested in membership, please contact Brenton at brenton@cvflyers.org.


Aviation Digital Data Service (ADDS)

Output produced by METARs form (0947 UTC 19 September 2014)
found at http://aviationweather.gov/adds/metars/
 
KOFP 190854Z AUTO 00000KT 6SM BR OVC070 16/15 A3016 RMK AO2 SLP210 T01560150 51011
KRIC 190854Z 03003KT 10SM SCT043 BKN070 OVC095 17/14 A3014 RMK AO2 SLP209 T01720144 51011
KRIC 190520Z 1906/2006 00000KT P6SM BKN060 
     FM191200 05006KT P6SM BKN060 
     FM200000 11004KT P6SM SCT100